Pagrindinis puslapis
METAR-TAF:

METAR-TAF

Oro uostai :

Heringsdorf, Vokietija

platuma: 53-53N, ilguma: 014-09E, Aukštis: 28 m

Dabartinis oras

Ataskaita buvo paskelbta 27 minutes, ne 17:50 UTC
Vėjas 10 kt iš Pietryčių
Temperatūra 6°C
Drėgmė 75%
Slėgis 1013 hPa
Matomumas 10 km arba daugiau

METAR: EDAH 291750Z AUTO 13010KT 9999 // NCD 06/02 Q1013

Laikas: 19:17 (18:17 UTC)

Prognozė

Ataskaita buvo paskelbta 4 valandos ir 17 minutes, ne 14:00 UTC
Prognozė galioja nuo 29 metu 15 UTC su 29 metu 24 UTC
Vėjas 10 kt iš Pietryčių
Matomumas 10 km arba daugiau
nėra debesų žemiau 1500 m ir nėra kamuolinių lietaus debesų

TAF: EDAH 291400Z 2915/2924 14010KT CAVOK

Orai ataskaitas ir orų prognozės (METAR, TAF).

turimą stotys yra geltonos ir raudonos taškus žemėlapyje.

Perkelti pele per norėdami pamatyti stoties vardą.

Tada spustelėkite, norėdami matyti oro stebėjimo ir prognozės.

Norėdami pakeisti žemėlapį: spustelėkite ant žalios mygtukų su juodo kryžiaus žemyn,; žalią mygtuką su brūkšneliu, jei norite nutolinti; arba žalių rodyklių gretimoms žemėlapius.


METAR-TAF: